sensor_id;sensor_type;location;lat;lon;timestamp;P1;durP1;ratioP1;P2;durP2;ratioP2
46653;SDS011;38960;51.074;17.004;2022-08-01T00:01:33;13.13;;;12.15;;
46653;SDS011;38960;51.074;17.004;2022-08-01T00:03:59;13.55;;;12.55;;
46653;SDS011;38960;51.074;17.004;2022-08-01T00:06:25;13.75;;;12.85;;
46653;SDS011;38960;51.074;17.004;2022-08-01T00:08:50;13.38;;;12.40;;
46653;SDS011;38960;51.074;17.004;2022-08-01T00:11:16;13.77;;;12.68;;
46653;SDS011;38960;51.074;17.004;2022-08-01T00:13:42;13.63;;;12.63;;
46653;SDS011;38960;51.074;17.004;2022-08-01T00:16:07;13.13;;;12.32;;
46653;SDS011;38960;51.074;17.004;2022-08-01T00:18:33;13.60;;;12.70;;
46653;SDS011;38960;51.074;17.004;2022-08-01T00:20:59;13.85;;;13.00;;
46653;SDS011;38960;51.074;17.004;2022-08-01T00:23:24;13.10;;;12.30;;
46653;SDS011;38960;51.074;17.004;2022-08-01T00:25:50;13.90;;;12.90;;
46653;SDS011;38960;51.074;17.004;2022-08-01T00:28:15;14.95;;;12.48;;
46653;SDS011;38960;51.074;17.004;2022-08-01T00:30:41;13.73;;;12.82;;
46653;SDS011;38960;51.074;17.004;2022-08-01T00:33:07;13.73;;;12.82;;
46653;SDS011;38960;51.074;17.004;2022-08-01T00:35:32;14.00;;;13.02;;
46653;SDS011;38960;51.074;17.004;2022-08-01T00:37:57;13.32;;;12.40;;
46653;SDS011;38960;51.074;17.004;2022-08-01T00:40:23;13.63;;;12.73;;
46653;SDS011;38960;51.074;17.004;2022-08-01T00:42:48;13.05;;;12.15;;
46653;SDS011;38960;51.074;17.004;2022-08-01T00:45:14;13.60;;;12.70;;
46653;SDS011;38960;51.074;17.004;2022-08-01T00:47:39;13.43;;;12.63;;
46653;SDS011;38960;51.074;17.004;2022-08-01T00:50:05;14.07;;;13.05;;
46653;SDS011;38960;51.074;17.004;2022-08-01T00:52:31;12.60;;;11.77;;
46653;SDS011;38960;51.074;17.004;2022-08-01T00:54:57;13.20;;;12.40;;
46653;SDS011;38960;51.074;17.004;2022-08-01T00:57:23;13.45;;;12.55;;
46653;SDS011;38960;51.074;17.004;2022-08-01T00:59:48;14.57;;;13.48;;
46653;SDS011;38960;51.074;17.004;2022-08-01T01:02:14;13.60;;;12.73;;
46653;SDS011;38960;51.074;17.004;2022-08-01T01:04:39;13.65;;;12.85;;
46653;SDS011;38960;51.074;17.004;2022-08-01T01:17:36;12.95;;;12.15;;
46653;SDS011;38960;51.074;17.004;2022-08-01T01:20:05;13.48;;;12.57;;
46653;SDS011;38960;51.074;17.004;2022-08-01T01:30:35;13.75;;;12.75;;
46653;SDS011;38960;51.074;17.004;2022-08-01T01:33:03;13.75;;;12.80;;
46653;SDS011;38960;51.074;17.004;2022-08-01T01:35:32;12.95;;;12.15;;
46653;SDS011;38960;51.074;17.004;2022-08-01T01:38:07;13.27;;;12.48;;
46653;SDS011;38960;51.074;17.004;2022-08-01T01:40:34;13.30;;;12.40;;
46653;SDS011;38960;51.074;17.004;2022-08-01T01:43:01;13.95;;;12.90;;
46653;SDS011;38960;51.074;17.004;2022-08-01T01:45:26;14.15;;;13.05;;
46653;SDS011;38960;51.074;17.004;2022-08-01T01:47:53;13.30;;;12.27;;
46653;SDS011;38960;51.074;17.004;2022-08-01T01:50:20;13.38;;;12.38;;
46653;SDS011;38960;51.074;17.004;2022-08-01T01:52:47;12.88;;;11.77;;
46653;SDS011;38960;51.074;17.004;2022-08-01T01:55:13;12.75;;;11.95;;
46653;SDS011;38960;51.074;17.004;2022-08-01T01:57:39;13.57;;;12.57;;
46653;SDS011;38960;51.074;17.004;2022-08-01T02:00:06;13.23;;;12.18;;
46653;SDS011;38960;51.074;17.004;2022-08-01T02:02:34;13.88;;;12.70;;
46653;SDS011;38960;51.074;17.004;2022-08-01T02:05:01;16.25;;;12.23;;
46653;SDS011;38960;51.074;17.004;2022-08-01T02:07:27;13.30;;;12.30;;
46653;SDS011;38960;51.074;17.004;2022-08-01T02:09:53;13.95;;;12.75;;
46653;SDS011;38960;51.074;17.004;2022-08-01T02:12:19;12.90;;;12.10;;
46653;SDS011;38960;51.074;17.004;2022-08-01T02:14:46;13.40;;;12.32;;
46653;SDS011;38960;51.074;17.004;2022-08-01T02:17:15;14.50;;;13.27;;
46653;SDS011;38960;51.074;17.004;2022-08-01T02:19:41;14.02;;;13.07;;
46653;SDS011;38960;51.074;17.004;2022-08-01T02:22:08;14.27;;;13.27;;
46653;SDS011;38960;51.074;17.004;2022-08-01T02:27:25;13.32;;;12.32;;
46653;SDS011;38960;51.074;17.004;2022-08-01T02:35:13;13.93;;;12.75;;
46653;SDS011;38960;51.074;17.004;2022-08-01T02:37:39;12.88;;;12.05;;
46653;SDS011;38960;51.074;17.004;2022-08-01T02:40:06;14.45;;;13.10;;
46653;SDS011;38960;51.074;17.004;2022-08-01T02:42:33;13.85;;;12.93;;
46653;SDS011;38960;51.074;17.004;2022-08-01T02:45:00;14.55;;;13.32;;
46653;SDS011;38960;51.074;17.004;2022-08-01T02:47:27;12.80;;;11.93;;
46653;SDS011;38960;51.074;17.004;2022-08-01T02:49:54;13.82;;;12.93;;
46653;SDS011;38960;51.074;17.004;2022-08-01T02:52:20;13.43;;;12.55;;
46653;SDS011;38960;51.074;17.004;2022-08-01T02:54:47;14.00;;;12.85;;
46653;SDS011;38960;51.074;17.004;2022-08-01T02:57:14;14.07;;;12.90;;
46653;SDS011;38960;51.074;17.004;2022-08-01T02:59:41;13.98;;;13.07;;
46653;SDS011;38960;51.074;17.004;2022-08-01T03:02:08;14.88;;;13.57;;
46653;SDS011;38960;51.074;17.004;2022-08-01T03:04:35;14.05;;;12.93;;
46653;SDS011;38960;51.074;17.004;2022-08-01T03:07:03;15.00;;;13.52;;
46653;SDS011;38960;51.074;17.004;2022-08-01T03:09:30;15.57;;;14.32;;
46653;SDS011;38960;51.074;17.004;2022-08-01T03:11:59;14.40;;;13.10;;
46653;SDS011;38960;51.074;17.004;2022-08-01T03:14:26;14.70;;;13.65;;
46653;SDS011;38960;51.074;17.004;2022-08-01T03:16:53;14.23;;;13.02;;
46653;SDS011;38960;51.074;17.004;2022-08-01T03:19:19;14.60;;;13.35;;
46653;SDS011;38960;51.074;17.004;2022-08-01T03:21:45;14.05;;;12.93;;
46653;SDS011;38960;51.074;17.004;2022-08-01T03:24:12;14.60;;;13.50;;
46653;SDS011;38960;51.074;17.004;2022-08-01T03:26:39;14.63;;;13.15;;
46653;SDS011;38960;51.074;17.004;2022-08-01T03:29:05;15.38;;;13.90;;
46653;SDS011;38960;51.074;17.004;2022-08-01T03:31:35;14.27;;;13.27;;
46653;SDS011;38960;51.074;17.004;2022-08-01T03:34:01;14.30;;;13.25;;
46653;SDS011;38960;51.074;17.004;2022-08-01T03:36:27;13.98;;;12.88;;
46653;SDS011;38960;51.074;17.004;2022-08-01T03:38:54;14.25;;;13.00;;
46653;SDS011;38960;51.074;17.004;2022-08-01T03:41:22;14.13;;;13.13;;
46653;SDS011;38960;51.074;17.004;2022-08-01T03:44:07;14.60;;;13.70;;
46653;SDS011;38960;51.074;17.004;2022-08-01T03:46:45;15.73;;;14.23;;
46653;SDS011;38960;51.074;17.004;2022-08-01T03:49:23;15.40;;;14.13;;
46653;SDS011;38960;51.074;17.004;2022-08-01T03:51:53;15.48;;;14.25;;
46653;SDS011;38960;51.074;17.004;2022-08-01T03:54:23;16.40;;;15.10;;
46653;SDS011;38960;51.074;17.004;2022-08-01T03:59:16;16.25;;;14.77;;
46653;SDS011;38960;51.074;17.004;2022-08-01T04:01:43;16.10;;;14.68;;
46653;SDS011;38960;51.074;17.004;2022-08-01T04:04:09;15.20;;;14.20;;
46653;SDS011;38960;51.074;17.004;2022-08-01T04:06:37;16.55;;;15.20;;
46653;SDS011;38960;51.074;17.004;2022-08-01T04:09:03;15.60;;;14.38;;
46653;SDS011;38960;51.074;17.004;2022-08-01T04:11:29;16.17;;;14.95;;
46653;SDS011;38960;51.074;17.004;2022-08-01T04:13:54;16.05;;;14.85;;
46653;SDS011;38960;51.074;17.004;2022-08-01T04:16:20;15.38;;;14.25;;
46653;SDS011;38960;51.074;17.004;2022-08-01T04:18:47;15.63;;;14.48;;
46653;SDS011;38960;51.074;17.004;2022-08-01T04:21:13;16.27;;;14.35;;
46653;SDS011;38960;51.074;17.004;2022-08-01T04:23:40;16.05;;;14.95;;
46653;SDS011;38960;51.074;17.004;2022-08-01T04:26:06;16.33;;;14.98;;
46653;SDS011;38960;51.074;17.004;2022-08-01T04:28:33;15.95;;;14.60;;
46653;SDS011;38960;51.074;17.004;2022-08-01T04:31:00;16.55;;;15.18;;
46653;SDS011;38960;51.074;17.004;2022-08-01T04:33:25;16.77;;;15.18;;
46653;SDS011;38960;51.074;17.004;2022-08-01T04:35:52;16.60;;;15.30;;
46653;SDS011;38960;51.074;17.004;2022-08-01T04:38:19;16.60;;;15.32;;
46653;SDS011;38960;51.074;17.004;2022-08-01T04:40:47;16.98;;;15.43;;
46653;SDS011;38960;51.074;17.004;2022-08-01T04:43:14;17.42;;;15.70;;
46653;SDS011;38960;51.074;17.004;2022-08-01T04:45:39;16.77;;;15.52;;
46653;SDS011;38960;51.074;17.004;2022-08-01T04:48:05;17.00;;;15.70;;
46653;SDS011;38960;51.074;17.004;2022-08-01T04:50:31;17.17;;;15.55;;
46653;SDS011;38960;51.074;17.004;2022-08-01T04:52:57;16.65;;;15.45;;
46653;SDS011;38960;51.074;17.004;2022-08-01T04:55:22;16.67;;;15.00;;
46653;SDS011;38960;51.074;17.004;2022-08-01T04:57:48;17.23;;;15.85;;
46653;SDS011;38960;51.074;17.004;2022-08-01T05:00:14;17.08;;;15.65;;
46653;SDS011;38960;51.074;17.004;2022-08-01T05:02:41;16.08;;;14.90;;
46653;SDS011;38960;51.074;17.004;2022-08-01T05:05:07;16.23;;;14.93;;
46653;SDS011;38960;51.074;17.004;2022-08-01T05:07:33;16.38;;;15.18;;
46653;SDS011;38960;51.074;17.004;2022-08-01T05:10:02;17.70;;;15.77;;
46653;SDS011;38960;51.074;17.004;2022-08-01T05:12:28;16.90;;;15.52;;
46653;SDS011;38960;51.074;17.004;2022-08-01T05:14:54;16.88;;;15.27;;
46653;SDS011;38960;51.074;17.004;2022-08-01T05:17:19;16.40;;;15.00;;
46653;SDS011;38960;51.074;17.004;2022-08-01T05:19:45;16.45;;;14.90;;
46653;SDS011;38960;51.074;17.004;2022-08-01T05:22:11;15.75;;;14.65;;
46653;SDS011;38960;51.074;17.004;2022-08-01T05:24:39;15.98;;;14.88;;
46653;SDS011;38960;51.074;17.004;2022-08-01T05:27:05;16.42;;;15.02;;
46653;SDS011;38960;51.074;17.004;2022-08-01T05:29:32;16.83;;;15.63;;
46653;SDS011;38960;51.074;17.004;2022-08-01T05:31:58;17.00;;;15.70;;
46653;SDS011;38960;51.074;17.004;2022-08-01T05:34:25;16.70;;;15.10;;
46653;SDS011;38960;51.074;17.004;2022-08-01T05:36:50;16.38;;;15.20;;
46653;SDS011;38960;51.074;17.004;2022-08-01T05:39:16;16.88;;;15.45;;
46653;SDS011;38960;51.074;17.004;2022-08-01T05:41:41;17.25;;;15.48;;
46653;SDS011;38960;51.074;17.004;2022-08-01T05:44:07;16.33;;;14.93;;
46653;SDS011;38960;51.074;17.004;2022-08-01T05:46:33;17.63;;;16.23;;
46653;SDS011;38960;51.074;17.004;2022-08-01T05:48:59;20.38;;;18.88;;
46653;SDS011;38960;51.074;17.004;2022-08-01T05:51:25;19.15;;;17.65;;
46653;SDS011;38960;51.074;17.004;2022-08-01T05:53:51;17.10;;;15.52;;
46653;SDS011;38960;51.074;17.004;2022-08-01T05:56:17;16.55;;;15.25;;
46653;SDS011;38960;51.074;17.004;2022-08-01T05:58:43;16.90;;;15.40;;
46653;SDS011;38960;51.074;17.004;2022-08-01T06:01:08;17.13;;;15.40;;
46653;SDS011;38960;51.074;17.004;2022-08-01T06:03:34;18.40;;;16.77;;
46653;SDS011;38960;51.074;17.004;2022-08-01T06:06:00;18.15;;;16.63;;
46653;SDS011;38960;51.074;17.004;2022-08-01T06:08:26;17.73;;;16.08;;
46653;SDS011;38960;51.074;17.004;2022-08-01T06:10:51;17.80;;;16.10;;
46653;SDS011;38960;51.074;17.004;2022-08-01T06:13:17;25.10;;;16.65;;
46653;SDS011;38960;51.074;17.004;2022-08-01T06:15:44;16.15;;;14.93;;
46653;SDS011;38960;51.074;17.004;2022-08-01T06:18:10;17.95;;;16.02;;
46653;SDS011;38960;51.074;17.004;2022-08-01T06:20:36;18.65;;;16.75;;
46653;SDS011;38960;51.074;17.004;2022-08-01T06:23:01;18.40;;;16.80;;
46653;SDS011;38960;51.074;17.004;2022-08-01T06:25:27;17.58;;;15.95;;
46653;SDS011;38960;51.074;17.004;2022-08-01T06:27:52;23.38;;;18.88;;
46653;SDS011;38960;51.074;17.004;2022-08-01T06:30:18;21.45;;;19.48;;
46653;SDS011;38960;51.074;17.004;2022-08-01T06:32:43;17.70;;;16.33;;
46653;SDS011;38960;51.074;17.004;2022-08-01T06:35:09;17.33;;;16.08;;
46653;SDS011;38960;51.074;17.004;2022-08-01T06:37:34;17.05;;;15.77;;
46653;SDS011;38960;51.074;17.004;2022-08-01T06:40:04;20.45;;;15.40;;
46653;SDS011;38960;51.074;17.004;2022-08-01T06:42:31;16.38;;;15.23;;
46653;SDS011;38960;51.074;17.004;2022-08-01T06:45:00;16.50;;;15.13;;
46653;SDS011;38960;51.074;17.004;2022-08-01T06:47:29;16.25;;;15.05;;
46653;SDS011;38960;51.074;17.004;2022-08-01T06:49:55;16.35;;;15.07;;
46653;SDS011;38960;51.074;17.004;2022-08-01T06:52:20;17.55;;;16.08;;
46653;SDS011;38960;51.074;17.004;2022-08-01T06:54:45;14.95;;;13.90;;
46653;SDS011;38960;51.074;17.004;2022-08-01T06:57:11;15.20;;;14.10;;
46653;SDS011;38960;51.074;17.004;2022-08-01T06:59:37;14.50;;;13.40;;
46653;SDS011;38960;51.074;17.004;2022-08-01T07:02:02;15.15;;;14.00;;
46653;SDS011;38960;51.074;17.004;2022-08-01T07:04:28;15.13;;;14.00;;
46653;SDS011;38960;51.074;17.004;2022-08-01T07:06:53;15.45;;;14.35;;
46653;SDS011;38960;51.074;17.004;2022-08-01T07:09:19;14.95;;;13.85;;
46653;SDS011;38960;51.074;17.004;2022-08-01T07:11:44;14.95;;;13.95;;
46653;SDS011;38960;51.074;17.004;2022-08-01T07:14:09;14.95;;;14.13;;
46653;SDS011;38960;51.074;17.004;2022-08-01T07:16:35;16.23;;;15.15;;
46653;SDS011;38960;51.074;17.004;2022-08-01T07:19:00;14.68;;;13.68;;
46653;SDS011;38960;51.074;17.004;2022-08-01T07:21:26;15.77;;;14.57;;
46653;SDS011;38960;51.074;17.004;2022-08-01T07:23:51;15.60;;;14.50;;
46653;SDS011;38960;51.074;17.004;2022-08-01T07:26:17;15.98;;;14.88;;
46653;SDS011;38960;51.074;17.004;2022-08-01T07:28:42;14.75;;;13.85;;
46653;SDS011;38960;51.074;17.004;2022-08-01T07:31:08;16.02;;;14.82;;
46653;SDS011;38960;51.074;17.004;2022-08-01T07:33:33;15.50;;;14.45;;
46653;SDS011;38960;51.074;17.004;2022-08-01T07:35:59;15.10;;;14.00;;
46653;SDS011;38960;51.074;17.004;2022-08-01T07:38:24;14.20;;;13.32;;
46653;SDS011;38960;51.074;17.004;2022-08-01T07:40:49;15.20;;;13.93;;
46653;SDS011;38960;51.074;17.004;2022-08-01T07:43:15;14.88;;;13.88;;
46653;SDS011;38960;51.074;17.004;2022-08-01T07:45:41;14.80;;;13.68;;
46653;SDS011;38960;51.074;17.004;2022-08-01T07:48:07;15.20;;;14.07;;
46653;SDS011;38960;51.074;17.004;2022-08-01T07:50:32;15.25;;;14.23;;
46653;SDS011;38960;51.074;17.004;2022-08-01T07:52:58;15.57;;;14.40;;
46653;SDS011;38960;51.074;17.004;2022-08-01T07:55:24;14.68;;;13.55;;
46653;SDS011;38960;51.074;17.004;2022-08-01T07:57:49;15.15;;;13.85;;
46653;SDS011;38960;51.074;17.004;2022-08-01T08:00:16;14.82;;;13.73;;
46653;SDS011;38960;51.074;17.004;2022-08-01T08:02:41;14.52;;;13.50;;
46653;SDS011;38960;51.074;17.004;2022-08-01T08:05:07;14.77;;;13.88;;
46653;SDS011;38960;51.074;17.004;2022-08-01T08:07:33;14.75;;;13.65;;
46653;SDS011;38960;51.074;17.004;2022-08-01T08:09:58;15.25;;;13.90;;
46653;SDS011;38960;51.074;17.004;2022-08-01T08:12:24;14.18;;;13.27;;
46653;SDS011;38960;51.074;17.004;2022-08-01T08:14:49;14.40;;;13.48;;
46653;SDS011;38960;51.074;17.004;2022-08-01T08:17:15;14.80;;;13.40;;
46653;SDS011;38960;51.074;17.004;2022-08-01T08:19:40;14.55;;;13.35;;
46653;SDS011;38960;51.074;17.004;2022-08-01T08:22:07;15.32;;;14.07;;
46653;SDS011;38960;51.074;17.004;2022-08-01T08:24:33;14.25;;;13.20;;
46653;SDS011;38960;51.074;17.004;2022-08-01T08:27:00;14.85;;;13.55;;
46653;SDS011;38960;51.074;17.004;2022-08-01T08:29:27;15.00;;;14.00;;
46653;SDS011;38960;51.074;17.004;2022-08-01T08:31:55;15.57;;;14.40;;
46653;SDS011;38960;51.074;17.004;2022-08-01T08:34:21;14.52;;;13.57;;
46653;SDS011;38960;51.074;17.004;2022-08-01T08:36:46;14.95;;;13.88;;
46653;SDS011;38960;51.074;17.004;2022-08-01T08:39:12;18.55;;;14.00;;
46653;SDS011;38960;51.074;17.004;2022-08-01T08:41:38;15.73;;;14.05;;
46653;SDS011;38960;51.074;17.004;2022-08-01T08:44:06;14.93;;;13.60;;
46653;SDS011;38960;51.074;17.004;2022-08-01T08:46:32;14.80;;;13.77;;
46653;SDS011;38960;51.074;17.004;2022-08-01T08:48:59;14.88;;;13.60;;
46653;SDS011;38960;51.074;17.004;2022-08-01T08:51:26;15.20;;;14.07;;
46653;SDS011;38960;51.074;17.004;2022-08-01T08:53:55;16.83;;;15.27;;
46653;SDS011;38960;51.074;17.004;2022-08-01T08:56:23;14.82;;;13.80;;
46653;SDS011;38960;51.074;17.004;2022-08-01T08:58:49;16.00;;;15.00;;
46653;SDS011;38960;51.074;17.004;2022-08-01T09:01:15;14.75;;;13.75;;
46653;SDS011;38960;51.074;17.004;2022-08-01T09:03:42;14.55;;;13.55;;
46653;SDS011;38960;51.074;17.004;2022-08-01T09:06:09;16.10;;;14.60;;
46653;SDS011;38960;51.074;17.004;2022-08-01T09:08:35;14.57;;;13.43;;
46653;SDS011;38960;51.074;17.004;2022-08-01T09:11:01;14.88;;;13.80;;
46653;SDS011;38960;51.074;17.004;2022-08-01T09:13:26;14.57;;;13.68;;
46653;SDS011;38960;51.074;17.004;2022-08-01T09:15:53;14.48;;;13.30;;
46653;SDS011;38960;51.074;17.004;2022-08-01T09:23:37;15.43;;;14.30;;
46653;SDS011;38960;51.074;17.004;2022-08-01T09:26:05;15.23;;;13.73;;
46653;SDS011;38960;51.074;17.004;2022-08-01T09:28:31;14.50;;;13.50;;
46653;SDS011;38960;51.074;17.004;2022-08-01T09:30:57;16.20;;;14.90;;
46653;SDS011;38960;51.074;17.004;2022-08-01T09:33:23;16.02;;;14.77;;
46653;SDS011;38960;51.074;17.004;2022-08-01T09:35:55;14.65;;;13.57;;
46653;SDS011;38960;51.074;17.004;2022-08-01T09:38:24;15.63;;;13.85;;
46653;SDS011;38960;51.074;17.004;2022-08-01T09:40:56;15.50;;;14.48;;
46653;SDS011;38960;51.074;17.004;2022-08-01T09:45:49;14.20;;;13.25;;
46653;SDS011;38960;51.074;17.004;2022-08-01T09:48:14;15.63;;;14.43;;
46653;SDS011;38960;51.074;17.004;2022-08-01T09:50:43;14.63;;;13.52;;
46653;SDS011;38960;51.074;17.004;2022-08-01T09:53:10;14.90;;;13.80;;
46653;SDS011;38960;51.074;17.004;2022-08-01T09:55:37;14.70;;;13.52;;
46653;SDS011;38960;51.074;17.004;2022-08-01T09:58:03;15.48;;;14.18;;
46653;SDS011;38960;51.074;17.004;2022-08-01T10:00:30;15.15;;;13.85;;
46653;SDS011;38960;51.074;17.004;2022-08-01T10:02:57;15.20;;;13.82;;
46653;SDS011;38960;51.074;17.004;2022-08-01T10:05:33;14.70;;;13.80;;
46653;SDS011;38960;51.074;17.004;2022-08-01T10:08:00;14.38;;;13.18;;
46653;SDS011;38960;51.074;17.004;2022-08-01T10:10:29;14.50;;;13.60;;
46653;SDS011;38960;51.074;17.004;2022-08-01T10:12:55;14.25;;;13.35;;
46653;SDS011;38960;51.074;17.004;2022-08-01T10:15:22;17.95;;;13.25;;
46653;SDS011;38960;51.074;17.004;2022-08-01T10:20:20;14.93;;;13.93;;
46653;SDS011;38960;51.074;17.004;2022-08-01T10:22:46;13.75;;;12.95;;
46653;SDS011;38960;51.074;17.004;2022-08-01T10:25:12;13.93;;;13.02;;
46653;SDS011;38960;51.074;17.004;2022-08-01T10:27:42;13.63;;;12.83;;
46653;SDS011;38960;51.074;17.004;2022-08-01T10:30:10;14.90;;;13.75;;
46653;SDS011;38960;51.074;17.004;2022-08-01T10:32:36;13.88;;;12.85;;
46653;SDS011;38960;51.074;17.004;2022-08-01T10:35:06;12.73;;;12.02;;
46653;SDS011;38960;51.074;17.004;2022-08-01T10:37:33;13.50;;;12.50;;
46653;SDS011;38960;51.074;17.004;2022-08-01T10:39:59;13.50;;;12.65;;
46653;SDS011;38960;51.074;17.004;2022-08-01T10:42:25;13.98;;;12.88;;
46653;SDS011;38960;51.074;17.004;2022-08-01T10:44:52;14.27;;;13.27;;
46653;SDS011;38960;51.074;17.004;2022-08-01T10:47:21;15.43;;;13.90;;
46653;SDS011;38960;51.074;17.004;2022-08-01T10:50:04;14.23;;;13.32;;
46653;SDS011;38960;51.074;17.004;2022-08-01T10:52:37;13.90;;;12.98;;
46653;SDS011;38960;51.074;17.004;2022-08-01T10:55:03;14.68;;;13.63;;
46653;SDS011;38960;51.074;17.004;2022-08-01T10:57:45;14.57;;;13.48;;
46653;SDS011;38960;51.074;17.004;2022-08-01T11:00:18;14.45;;;13.38;;
46653;SDS011;38960;51.074;17.004;2022-08-01T11:03:01;15.35;;;14.25;;
46653;SDS011;38960;51.074;17.004;2022-08-01T11:05:32;14.90;;;13.90;;
46653;SDS011;38960;51.074;17.004;2022-08-01T11:08:03;14.63;;;13.65;;
46653;SDS011;38960;51.074;17.004;2022-08-01T11:10:38;14.50;;;13.57;;
46653;SDS011;38960;51.074;17.004;2022-08-01T11:13:10;13.90;;;12.95;;
46653;SDS011;38960;51.074;17.004;2022-08-01T11:15:36;14.60;;;13.57;;
46653;SDS011;38960;51.074;17.004;2022-08-01T11:18:39;14.10;;;13.07;;
46653;SDS011;38960;51.074;17.004;2022-08-01T11:21:01;13.23;;;12.35;;
46653;SDS011;38960;51.074;17.004;2022-08-01T11:23:27;13.48;;;12.68;;
46653;SDS011;38960;51.074;17.004;2022-08-01T11:28:20;14.48;;;13.27;;
46653;SDS011;38960;51.074;17.004;2022-08-01T11:30:54;14.38;;;13.48;;
46653;SDS011;38960;51.074;17.004;2022-08-01T11:38:35;14.45;;;13.52;;
46653;SDS011;38960;51.074;17.004;2022-08-01T11:43:56;14.38;;;13.27;;
46653;SDS011;38960;51.074;17.004;2022-08-01T11:52:09;15.13;;;14.23;;
46653;SDS011;38960;51.074;17.004;2022-08-01T11:57:14;14.75;;;13.75;;
46653;SDS011;38960;51.074;17.004;2022-08-01T12:00:12;15.05;;;13.90;;
46653;SDS011;38960;51.074;17.004;2022-08-01T12:02:39;15.15;;;13.88;;
46653;SDS011;38960;51.074;17.004;2022-08-01T12:05:08;13.80;;;12.90;;
46653;SDS011;38960;51.074;17.004;2022-08-01T12:07:37;14.07;;;12.98;;
46653;SDS011;38960;51.074;17.004;2022-08-01T12:10:07;13.65;;;12.75;;
46653;SDS011;38960;51.074;17.004;2022-08-01T12:12:35;14.57;;;13.23;;
46653;SDS011;38960;51.074;17.004;2022-08-01T12:15:07;13.73;;;12.75;;
46653;SDS011;38960;51.074;17.004;2022-08-01T12:17:35;14.20;;;13.15;;
46653;SDS011;38960;51.074;17.004;2022-08-01T12:20:03;14.48;;;13.35;;
46653;SDS011;38960;51.074;17.004;2022-08-01T12:22:29;14.63;;;13.43;;
46653;SDS011;38960;51.074;17.004;2022-08-01T12:24:55;14.15;;;13.27;;
46653;SDS011;38960;51.074;17.004;2022-08-01T12:27:28;14.38;;;13.43;;
46653;SDS011;38960;51.074;17.004;2022-08-01T12:29:55;13.98;;;12.88;;
46653;SDS011;38960;51.074;17.004;2022-08-01T12:32:28;14.00;;;13.13;;
46653;SDS011;38960;51.074;17.004;2022-08-01T12:34:56;13.85;;;13.05;;
46653;SDS011;38960;51.074;17.004;2022-08-01T12:37:26;14.50;;;13.60;;
46653;SDS011;38960;51.074;17.004;2022-08-01T12:39:51;13.93;;;13.02;;
46653;SDS011;38960;51.074;17.004;2022-08-01T12:42:17;13.10;;;12.40;;
46653;SDS011;38960;51.074;17.004;2022-08-01T12:44:44;14.50;;;13.30;;
46653;SDS011;38960;51.074;17.004;2022-08-01T12:47:11;13.95;;;12.95;;
46653;SDS011;38960;51.074;17.004;2022-08-01T12:49:37;13.80;;;13.00;;
46653;SDS011;38960;51.074;17.004;2022-08-01T12:52:04;13.88;;;13.07;;
46653;SDS011;38960;51.074;17.004;2022-08-01T12:54:29;14.00;;;13.10;;
46653;SDS011;38960;51.074;17.004;2022-08-01T12:56:55;14.32;;;13.38;;
46653;SDS011;38960;51.074;17.004;2022-08-01T12:59:23;14.40;;;13.50;;
46653;SDS011;38960;51.074;17.004;2022-08-01T13:01:53;14.60;;;13.70;;
46653;SDS011;38960;51.074;17.004;2022-08-01T13:04:20;14.25;;;13.15;;
46653;SDS011;38960;51.074;17.004;2022-08-01T13:06:46;15.27;;;14.18;;
46653;SDS011;38960;51.074;17.004;2022-08-01T13:09:13;15.00;;;13.82;;
46653;SDS011;38960;51.074;17.004;2022-08-01T13:11:42;14.00;;;12.70;;
46653;SDS011;38960;51.074;17.004;2022-08-01T13:14:08;14.50;;;13.60;;
46653;SDS011;38960;51.074;17.004;2022-08-01T13:16:45;14.30;;;13.40;;
46653;SDS011;38960;51.074;17.004;2022-08-01T13:19:11;15.15;;;13.75;;
46653;SDS011;38960;51.074;17.004;2022-08-01T13:21:36;14.05;;;13.25;;
46653;SDS011;38960;51.074;17.004;2022-08-01T13:24:06;13.95;;;12.90;;
46653;SDS011;38960;51.074;17.004;2022-08-01T13:29:11;14.93;;;13.88;;
46653;SDS011;38960;51.074;17.004;2022-08-01T13:31:38;14.85;;;13.55;;
46653;SDS011;38960;51.074;17.004;2022-08-01T13:34:04;14.57;;;13.57;;
46653;SDS011;38960;51.074;17.004;2022-08-01T13:36:30;14.70;;;13.63;;
46653;SDS011;38960;51.074;17.004;2022-08-01T13:38:57;13.90;;;13.07;;
46653;SDS011;38960;51.074;17.004;2022-08-01T13:41:42;14.32;;;13.32;;
46653;SDS011;38960;51.074;17.004;2022-08-01T13:44:08;13.82;;;13.02;;
46653;SDS011;38960;51.074;17.004;2022-08-01T13:46:34;15.05;;;13.68;;
46653;SDS011;38960;51.074;17.004;2022-08-01T13:49:00;15.55;;;14.45;;
46653;SDS011;38960;51.074;17.004;2022-08-01T13:51:26;14.75;;;13.82;;
46653;SDS011;38960;51.074;17.004;2022-08-01T13:53:52;14.05;;;13.05;;
46653;SDS011;38960;51.074;17.004;2022-08-01T13:56:17;14.25;;;13.27;;
46653;SDS011;38960;51.074;17.004;2022-08-01T13:58:43;13.88;;;13.07;;
46653;SDS011;38960;51.074;17.004;2022-08-01T14:01:09;14.07;;;13.18;;
46653;SDS011;38960;51.074;17.004;2022-08-01T14:03:35;13.23;;;12.43;;
46653;SDS011;38960;51.074;17.004;2022-08-01T14:06:00;14.88;;;13.68;;
46653;SDS011;38960;51.074;17.004;2022-08-01T14:08:27;13.90;;;12.90;;
46653;SDS011;38960;51.074;17.004;2022-08-01T14:10:52;14.35;;;13.30;;
46653;SDS011;38960;51.074;17.004;2022-08-01T14:13:18;14.48;;;13.48;;
46653;SDS011;38960;51.074;17.004;2022-08-01T14:15:44;15.65;;;14.23;;
46653;SDS011;38960;51.074;17.004;2022-08-01T14:18:10;13.93;;;13.02;;
46653;SDS011;38960;51.074;17.004;2022-08-01T14:20:36;14.30;;;13.32;;
46653;SDS011;38960;51.074;17.004;2022-08-01T14:23:02;13.68;;;12.77;;
46653;SDS011;38960;51.074;17.004;2022-08-01T14:25:28;13.93;;;13.02;;
46653;SDS011;38960;51.074;17.004;2022-08-01T14:27:53;14.20;;;13.30;;
46653;SDS011;38960;51.074;17.004;2022-08-01T14:30:19;14.40;;;13.50;;
46653;SDS011;38960;51.074;17.004;2022-08-01T14:32:45;14.48;;;13.68;;
46653;SDS011;38960;51.074;17.004;2022-08-01T14:35:11;13.50;;;12.75;;
46653;SDS011;38960;51.074;17.004;2022-08-01T14:37:36;14.20;;;13.13;;
46653;SDS011;38960;51.074;17.004;2022-08-01T14:40:02;15.02;;;13.85;;
46653;SDS011;38960;51.074;17.004;2022-08-01T14:42:34;15.32;;;14.40;;
46653;SDS011;38960;51.074;17.004;2022-08-01T14:44:59;15.05;;;14.07;;
46653;SDS011;38960;51.074;17.004;2022-08-01T14:47:25;14.07;;;13.27;;
46653;SDS011;38960;51.074;17.004;2022-08-01T14:49:50;14.38;;;13.32;;
46653;SDS011;38960;51.074;17.004;2022-08-01T14:52:16;14.90;;;13.57;;
46653;SDS011;38960;51.074;17.004;2022-08-01T14:54:42;14.73;;;13.57;;
46653;SDS011;38960;51.074;17.004;2022-08-01T14:57:07;14.65;;;13.77;;
46653;SDS011;38960;51.074;17.004;2022-08-01T14:59:33;14.65;;;13.65;;
46653;SDS011;38960;51.074;17.004;2022-08-01T15:02:00;13.77;;;12.98;;
46653;SDS011;38960;51.074;17.004;2022-08-01T15:04:25;14.85;;;13.73;;
46653;SDS011;38960;51.074;17.004;2022-08-01T15:06:51;14.85;;;13.55;;
46653;SDS011;38960;51.074;17.004;2022-08-01T15:09:16;14.60;;;13.70;;